Time;durP1;ratioP1;P1;durP2;ratioP2;P2;SDS_P1;SDS_P2;PMS_P1;PMS_P2;Temp;Humidity;BMP_temperature;BMP_pressure;BME280_temperature;BME280_humidity;BME280_pressure;Samples;Min_cycle;Max_cycle;Signal;HPM_P1;HPM_P2
2023/04/23 00:01:44;;;;;;;;;;;;;;;15.99;55.80;101510.56;5053255;28;20308;-85
2023/04/23 00:04:09;;;;;;;;;;;;;;;16.10;55.93;101512.78;5071046;28;19920;-86
2023/04/23 00:06:35;;;;;;;;;;;;;;;16.10;55.23;101510.13;5070855;28;19942;-85
2023/04/23 00:09:00;;;;;;;;;;;;;;;16.02;55.50;101509.78;5070714;28;20377;-86
2023/04/23 00:11:26;;;;;;;;;;;;;;;15.94;55.70;101511.19;5053263;28;19917;-86
2023/04/23 00:13:52;;;;;;;;;;;;;;;15.92;55.57;101520.75;5070821;28;19999;-86
2023/04/23 00:16:18;;;;;;;;;;;;;;;15.94;55.64;101516.44;5069791;28;19999;-87
2023/04/23 00:18:43;;;;;;;;;;;;;;;15.93;55.78;101522.56;5052662;28;19920;-86
2023/04/23 00:21:09;;;;;;;;;;;;;;;15.99;55.38;101517.56;5053479;28;19921;-86
2023/04/23 00:23:35;;;;;;;;;;;;;;;15.93;56.71;101518.19;5034197;28;20356;-86
2023/04/23 00:26:00;;;;;;;;;;;;;;;15.94;57.95;101519.09;5066705;28;19920;-86
2023/04/23 00:28:26;;;;;;;;;;;;;;;15.75;59.12;101522.66;5063901;28;19916;-86
2023/04/23 00:30:51;;;;;;;;;;;;;;;15.87;59.17;101515.28;5071252;28;20418;-86
2023/04/23 00:33:16;;;;;;;;;;;;;;;15.81;58.26;101515.00;5053144;28;20361;-86
2023/04/23 00:35:42;;;;;;;;;;;;;;;15.70;57.93;101513.59;5070514;28;20417;-85
2023/04/23 00:38:07;;;;;;;;;;;;;;;15.73;57.06;101519.06;5070700;28;19916;-85
2023/04/23 00:40:33;;;;;;;;;;;;;;;15.72;56.99;101517.25;5070039;28;19916;-85
2023/04/23 00:42:58;;;;;;;;;;;;;;;15.85;56.20;101514.31;5053601;28;20006;-85
2023/04/23 00:45:23;;;;;;;;;;;;;;;15.76;56.22;101508.66;5040883;28;19912;-85
2023/04/23 00:47:49;;;;;;;;;;;;;;;15.83;56.08;101509.00;5069708;28;20030;-85
2023/04/23 00:50:14;;;;;;;;;;;;;;;15.88;55.78;101503.94;5071207;28;19974;-85
2023/04/23 00:52:40;;;;;;;;;;;;;;;15.78;55.84;101504.34;5070013;28;20019;-86
2023/04/23 00:55:07;;;;;;;;;;;;;;;15.80;55.60;101506.22;5070727;28;19987;-86
2023/04/23 00:57:32;;;;;;;;;;;;;;;15.79;55.76;101508.78;5052096;28;19920;-84
2023/04/23 00:59:58;;;;;;;;;;;;;;;15.78;55.85;101504.34;5053357;28;19912;-85
2023/04/23 01:02:25;;;;;;;;;;;;;;;15.79;55.34;101512.31;5067928;28;19916;-86
2023/04/23 01:04:51;;;;;;;;;;;;;;;15.80;55.56;101505.31;5053347;28;19908;-85
2023/04/23 01:07:16;;;;;;;;;;;;;;;15.75;55.37;101507.75;5051903;28;19916;-86
2023/04/23 01:09:42;;;;;;;;;;;;;;;15.78;55.57;101502.59;5068518;28;20329;-85
2023/04/23 01:12:07;;;;;;;;;;;;;;;15.73;55.94;101512.06;5052964;28;20329;-85
2023/04/23 01:14:32;;;;;;;;;;;;;;;15.81;57.29;101517.63;5070559;28;19912;-86
2023/04/23 01:16:58;;;;;;;;;;;;;;;15.84;57.82;101516.06;5069400;28;20019;-85
2023/04/23 01:19:23;;;;;;;;;;;;;;;15.66;59.11;101520.44;5033608;28;19981;-86
2023/04/23 01:21:49;;;;;;;;;;;;;;;15.62;59.24;101518.50;5069341;28;19923;-86
2023/04/23 01:24:14;;;;;;;;;;;;;;;15.60;58.21;101518.47;5034683;28;19916;-85
2023/04/23 01:26:40;;;;;;;;;;;;;;;15.57;57.36;101518.31;5070154;28;19960;-85
2023/04/23 01:29:05;;;;;;;;;;;;;;;15.62;56.93;101516.81;5069989;28;19978;-86
2023/04/23 01:31:31;;;;;;;;;;;;;;;15.67;56.22;101517.91;5071186;28;19922;-86
2023/04/23 01:33:56;;;;;;;;;;;;;;;15.64;56.34;101524.75;5069360;28;19962;-86
2023/04/23 01:36:25;;;;;;;;;;;;;;;15.75;56.05;101525.31;5068285;28;19951;-86
2023/04/23 01:38:51;;;;;;;;;;;;;;;15.67;55.67;101520.53;5046914;28;20278;-86
2023/04/23 01:41:17;;;;;;;;;;;;;;;15.67;55.89;101523.16;5052914;28;20435;-86
2023/04/23 01:43:43;;;;;;;;;;;;;;;15.70;55.74;101518.88;5069608;28;19912;-86
2023/04/23 01:46:09;;;;;;;;;;;;;;;15.74;55.44;101510.31;5051354;28;19912;-85
2023/04/23 01:48:35;;;;;;;;;;;;;;;15.73;55.26;101513.78;5069710;28;19912;-85
2023/04/23 01:51:00;;;;;;;;;;;;;;;15.66;55.56;101510.84;5068657;28;19927;-86
2023/04/23 01:53:25;;;;;;;;;;;;;;;15.60;55.35;101507.94;5068341;28;19923;-86
2023/04/23 01:55:51;;;;;;;;;;;;;;;15.68;55.23;101519.72;5070244;28;19962;-86
2023/04/23 01:58:18;;;;;;;;;;;;;;;15.66;55.24;101517.81;5068476;28;20374;-86
2023/04/23 02:00:43;;;;;;;;;;;;;;;15.61;55.17;101516.72;5069037;28;19916;-86
2023/04/23 02:03:09;;;;;;;;;;;;;;;15.67;55.96;101517.00;5050765;28;19936;-85
2023/04/23 02:05:35;;;;;;;;;;;;;;;15.77;56.91;101520.97;5050801;28;19916;-86
2023/04/23 02:08:01;;;;;;;;;;;;;;;15.62;58.34;101532.59;5039405;28;19923;-85
2023/04/23 02:10:26;;;;;;;;;;;;;;;15.53;59.00;101534.78;5060206;28;19912;-85
2023/04/23 02:12:52;;;;;;;;;;;;;;;15.52;58.07;101535.63;5073305;28;19927;-86
2023/04/23 02:15:18;;;;;;;;;;;;;;;15.40;57.58;101533.31;5056468;28;19912;-85
2023/04/23 02:17:44;;;;;;;;;;;;;;;15.40;57.14;101525.44;5054505;28;20439;-86
2023/04/23 02:20:10;;;;;;;;;;;;;;;15.39;56.99;101538.53;5056534;28;19916;-86
2023/04/23 02:22:36;;;;;;;;;;;;;;;15.39;56.60;101539.44;5075588;28;19916;-85
2023/04/23 02:25:02;;;;;;;;;;;;;;;15.46;56.05;101536.25;5073135;28;19965;-85
2023/04/23 02:27:27;;;;;;;;;;;;;;;15.53;56.02;101537.41;5055500;28;19916;-85
2023/04/23 02:29:53;;;;;;;;;;;;;;;15.63;55.71;101538.75;5039363;28;19919;-85
2023/04/23 02:32:18;;;;;;;;;;;;;;;15.48;55.65;101533.69;5056271;28;20373;-86
2023/04/23 02:34:45;;;;;;;;;;;;;;;15.47;56.01;101530.16;5073736;28;19916;-85
2023/04/23 02:37:10;;;;;;;;;;;;;;;15.58;55.38;101529.75;5053784;28;19920;-84
2023/04/23 02:39:37;;;;;;;;;;;;;;;15.53;55.37;101529.53;5063099;28;20313;-85
2023/04/23 02:42:03;;;;;;;;;;;;;;;15.59;54.99;101519.28;5056350;28;19950;-84
2023/04/23 02:44:28;;;;;;;;;;;;;;;15.71;54.86;101518.06;5073993;28;20329;-85
2023/04/23 02:46:55;;;;;;;;;;;;;;;15.56;55.16;101519.16;5073795;28;19995;-84
2023/04/23 02:49:20;;;;;;;;;;;;;;;15.58;54.84;101527.13;5072557;28;19951;-85
2023/04/23 02:51:45;;;;;;;;;;;;;;;15.69;55.00;101523.25;5055841;28;19958;-85
2023/04/23 02:54:11;;;;;;;;;;;;;;;15.63;56.23;101521.22;5055565;28;20379;-85
2023/04/23 02:56:36;;;;;;;;;;;;;;;15.42;57.95;101525.50;5035734;28;20348;-84
2023/04/23 02:59:03;;;;;;;;;;;;;;;15.36;58.72;101526.09;5055241;28;19912;-85
2023/04/23 03:01:28;;;;;;;;;;;;;;;15.36;59.02;101522.59;5072432;28;19912;-85
2023/04/23 03:03:54;;;;;;;;;;;;;;;15.28;57.88;101532.75;5055518;28;19912;-84
2023/04/23 03:06:19;;;;;;;;;;;;;;;15.25;57.33;101532.63;5072135;28;19967;-84
2023/04/23 03:08:45;;;;;;;;;;;;;;;15.40;56.45;101535.94;5073303;28;19923;-84
2023/04/23 03:11:10;;;;;;;;;;;;;;;15.28;56.40;101538.00;5072833;28;19999;-85
2023/04/23 03:13:35;;;;;;;;;;;;;;;15.36;56.14;101539.28;5047540;28;19916;-85
2023/04/23 03:16:01;;;;;;;;;;;;;;;15.39;55.79;101538.53;5045712;28;20398;-85
2023/04/23 03:18:26;;;;;;;;;;;;;;;15.32;55.76;101537.31;5066501;28;19921;-86
2023/04/23 03:20:52;;;;;;;;;;;;;;;15.42;55.54;101536.03;5050016;28;19921;-87
2023/04/23 03:23:17;;;;;;;;;;;;;;;15.36;55.44;101544.53;5061173;28;19920;-85
2023/04/23 03:25:43;;;;;;;;;;;;;;;15.45;55.13;101541.44;5049995;28;19928;-86
2023/04/23 03:28:08;;;;;;;;;;;;;;;15.35;55.23;101544.50;5051474;28;20303;-87
2023/04/23 03:30:33;;;;;;;;;;;;;;;15.29;55.59;101550.34;5050792;28;20452;-85
2023/04/23 03:33:01;;;;;;;;;;;;;;;15.31;55.44;101548.69;5066267;28;19916;-87
2023/04/23 03:35:26;;;;;;;;;;;;;;;15.40;54.98;101545.59;5051269;28;19912;-84
2023/04/23 03:37:52;;;;;;;;;;;;;;;15.38;54.94;101545.50;5034418;28;20368;-85
2023/04/23 03:40:18;;;;;;;;;;;;;;;15.32;55.19;101550.47;5066604;28;19923;-84
2023/04/23 03:42:43;;;;;;;;;;;;;;;15.39;55.58;101549.97;5065845;28;19999;-85
2023/04/23 03:45:10;;;;;;;;;;;;;;;15.37;57.01;101551.63;5047593;28;19974;-86
2023/04/23 03:47:35;;;;;;;;;;;;;;;15.12;58.52;101553.91;5038379;28;19920;-85
2023/04/23 03:50:01;;;;;;;;;;;;;;;15.19;58.99;101556.91;5037385;28;19978;-86
2023/04/23 03:52:26;;;;;;;;;;;;;;;15.23;58.73;101553.59;5061013;28;20421;-85
2023/04/23 03:54:52;;;;;;;;;;;;;;;15.10;57.45;101561.72;5048931;28;20007;-86
2023/04/23 03:57:17;;;;;;;;;;;;;;;15.15;56.77;101559.31;5044351;28;19913;-87
2023/04/23 03:59:42;;;;;;;;;;;;;;;15.13;56.52;101559.22;5048008;28;20646;-85
2023/04/23 04:02:08;;;;;;;;;;;;;;;15.13;56.09;101560.97;5047986;28;19925;-85
2023/04/23 04:04:33;;;;;;;;;;;;;;;15.09;56.09;101570.47;5045954;28;19917;-83
2023/04/23 04:07:01;;;;;;;;;;;;;;;15.12;56.16;101565.34;5050158;28;19921;-84
2023/04/23 04:09:27;;;;;;;;;;;;;;;15.16;56.17;101567.28;5050315;28;20317;-85
2023/04/23 04:11:53;;;;;;;;;;;;;;;15.18;56.89;101572.63;5060794;28;19923;-83
2023/04/23 04:14:18;;;;;;;;;;;;;;;15.20;57.25;101571.88;5070072;28;19939;-84
2023/04/23 04:16:44;;;;;;;;;;;;;;;15.21;57.24;101573.66;5064207;28;19923;-84
2023/04/23 04:19:09;;;;;;;;;;;;;;;15.22;57.32;101572.84;5053602;28;19926;-85
2023/04/23 04:21:35;;;;;;;;;;;;;;;15.24;57.23;101578.19;5074825;28;19943;-83
2023/04/23 04:24:01;;;;;;;;;;;;;;;15.21;57.30;101578.91;5070508;28;19916;-83
2023/04/23 04:26:27;;;;;;;;;;;;;;;15.20;57.66;101582.38;5064460;28;19916;-84
2023/04/23 04:28:53;;;;;;;;;;;;;;;15.18;57.77;101589.31;5052007;28;20415;-85
2023/04/23 04:31:20;;;;;;;;;;;;;;;15.16;57.90;101587.44;5053021;28;19916;-85
2023/04/23 04:33:46;;;;;;;;;;;;;;;15.14;58.03;101586.47;5068764;28;20382;-84
2023/04/23 04:36:12;;;;;;;;;;;;;;;15.08;58.13;101589.69;5068637;28;19927;-85
2023/04/23 04:38:38;;;;;;;;;;;;;;;15.04;58.36;101590.38;5068969;28;19974;-85
2023/04/23 04:41:04;;;;;;;;;;;;;;;15.10;58.22;101592.41;5070922;28;19916;-87
2023/04/23 04:46:14;;;;;;;;;;;;;;;15.06;58.46;101586.97;5052934;28;19926;-86
2023/04/23 04:48:39;;;;;;;;;;;;;;;15.03;58.54;101594.72;5065257;28;19916;-86
2023/04/23 04:51:05;;;;;;;;;;;;;;;14.98;58.73;101595.31;5040781;28;19927;-85
2023/04/23 04:53:30;;;;;;;;;;;;;;;14.98;58.94;101595.31;5049810;28;19917;-85
2023/04/23 04:55:56;;;;;;;;;;;;;;;14.94;58.94;101589.00;5070241;28;19916;-85
2023/04/23 04:58:21;;;;;;;;;;;;;;;14.94;59.04;101604.78;5050743;28;19920;-86
2023/04/23 05:00:50;;;;;;;;;;;;;;;14.95;58.92;101606.59;5051455;28;19916;-86
2023/04/23 05:03:16;;;;;;;;;;;;;;;14.93;59.07;101608.25;5041866;28;19916;-86
2023/04/23 05:05:42;;;;;;;;;;;;;;;14.98;59.00;101611.09;5048076;28;19930;-86
2023/04/23 05:08:08;;;;;;;;;;;;;;;14.97;58.97;101606.69;5065612;28;20380;-85
2023/04/23 05:10:33;;;;;;;;;;;;;;;14.94;59.18;101606.50;5064897;28;20499;-86
2023/04/23 05:12:59;;;;;;;;;;;;;;;14.91;59.10;101603.75;5065062;28;20008;-86
2023/04/23 05:15:24;;;;;;;;;;;;;;;14.93;59.11;101615.25;5048316;28;20275;-86
2023/04/23 05:17:52;;;;;;;;;;;;;;;14.94;59.21;101614.41;5047371;28;19924;-86
2023/04/23 05:20:17;;;;;;;;;;;;;;;14.92;59.26;101616.97;5062277;28;19916;-86
2023/04/23 05:22:43;;;;;;;;;;;;;;;14.85;59.36;101622.72;5047755;28;19965;-86
2023/04/23 05:25:10;;;;;;;;;;;;;;;14.92;59.26;101627.50;5046785;28;20313;-84
2023/04/23 05:27:36;;;;;;;;;;;;;;;14.90;59.24;101616.00;5064748;28;20447;-86
2023/04/23 05:30:01;;;;;;;;;;;;;;;14.89;59.27;101611.53;5063760;28;19916;-84
2023/04/23 05:32:27;;;;;;;;;;;;;;;14.86;59.40;101621.94;5047068;28;19923;-84
2023/04/23 05:34:52;;;;;;;;;;;;;;;14.83;59.60;101616.50;5066791;28;19916;-84
2023/04/23 05:37:18;;;;;;;;;;;;;;;14.85;59.37;101618.38;5068731;28;19921;-85
2023/04/23 05:39:43;;;;;;;;;;;;;;;14.84;59.45;101623.56;5068024;28;19961;-86
2023/04/23 05:42:09;;;;;;;;;;;;;;;14.82;59.05;101628.75;5044271;28;19938;-88
2023/04/23 05:44:34;;;;;;;;;;;;;;;14.78;59.40;101621.53;5042807;28;20563;-84
2023/04/23 05:47:00;;;;;;;;;;;;;;;14.94;57.95;101625.81;5032025;28;19977;-84
2023/04/23 05:49:26;;;;;;;;;;;;;;;15.03;56.91;101620.13;5058195;28;20510;-85
2023/04/23 05:51:51;;;;;;;;;;;;;;;15.05;56.31;101619.38;5048849;28;19917;-85
2023/04/23 05:54:26;;;;;;;;;;;;;;;14.88;56.94;101622.91;5049984;28;19916;-85
2023/04/23 05:56:52;;;;;;;;;;;;;;;15.09;56.14;101622.16;5050637;28;19917;-86
2023/04/23 05:59:18;;;;;;;;;;;;;;;15.14;55.65;101623.28;5051216;28;19923;-84
2023/04/23 06:01:45;;;;;;;;;;;;;;;15.23;55.40;101621.09;5047874;28;20388;-84
2023/04/23 06:04:19;;;;;;;;;;;;;;;15.25;55.06;101620.34;5048116;28;19938;-85
2023/04/23 06:06:50;;;;;;;;;;;;;;;15.18;55.02;101620.88;5033559;28;19966;-83
2023/04/23 06:09:26;;;;;;;;;;;;;;;15.34;54.55;101624.25;5034804;28;19925;-84
2023/04/23 06:11:53;;;;;;;;;;;;;;;15.26;54.77;101627.44;5064795;28;19942;-84
2023/04/23 06:14:18;;;;;;;;;;;;;;;15.29;54.54;101618.78;5048693;28;19924;-84
2023/04/23 06:16:44;;;;;;;;;;;;;;;15.35;54.32;101619.06;5058929;28;19917;-85
2023/04/23 06:19:10;;;;;;;;;;;;;;;15.36;54.27;101622.59;5060024;28;19924;-83
2023/04/23 06:22:14;;;;;;;;;;;;;;;15.25;54.59;101625.59;5065223;28;19920;-85
2023/04/23 06:25:00;;;;;;;;;;;;;;;15.12;56.43;101619.69;5049653;28;19959;-85
2023/04/23 06:30:29;;;;;;;;;;;;;;;15.12;58.08;101619.69;5064096;28;19986;-82
2023/04/23 06:33:00;;;;;;;;;;;;;;;15.10;58.26;101619.59;5067800;28;20362;-82
2023/04/23 06:35:28;;;;;;;;;;;;;;;15.20;57.03;101621.88;5044616;28;19920;-85
2023/04/23 06:38:17;;;;;;;;;;;;;;;15.20;56.18;101631.50;5033312;28;19939;-84
2023/04/23 06:40:43;;;;;;;;;;;;;;;15.23;55.71;101615.84;5045987;28;19956;-82
2023/04/23 06:43:08;;;;;;;;;;;;;;;15.32;55.28;101620.63;5032435;28;19978;-84
2023/04/23 06:45:43;;;;;;;;;;;;;;;15.06;56.49;101626.44;5045050;28;19989;-84
2023/04/23 06:48:09;;;;;;;;;;;;;;;15.11;56.06;101631.03;5059560;28;19924;-82
2023/04/23 06:50:34;;;;;;;;;;;;;;;15.16;55.48;101634.78;5045117;28;19916;-83
2023/04/23 06:53:00;;;;;;;;;;;;;;;15.15;55.44;101625.09;5032095;28;19923;-84
2023/04/23 06:55:27;;;;;;;;;;;;;;;15.16;55.42;101627.78;5069903;28;20904;-84
2023/04/23 06:57:53;;;;;;;;;;;;;;;15.21;55.22;101633.28;5054885;28;19920;-84
2023/04/23 07:00:19;;;;;;;;;;;;;;;15.24;55.02;101636.09;5050407;28;20439;-85
2023/04/23 07:02:45;;;;;;;;;;;;;;;15.30;54.73;101630.19;5048228;28;19927;-85
2023/04/23 07:05:11;;;;;;;;;;;;;;;15.18;54.81;101630.50;5052098;28;19994;-84
2023/04/23 07:07:37;;;;;;;;;;;;;;;15.14;55.04;101624.19;5036331;28;19941;-84
2023/04/23 07:10:03;;;;;;;;;;;;;;;15.25;54.81;101633.50;5053026;28;20393;-84
2023/04/23 07:12:29;;;;;;;;;;;;;;;15.23;55.00;101632.53;5051664;28;19916;-83
2023/04/23 07:14:55;;;;;;;;;;;;;;;14.82;57.58;101638.38;5050562;28;19916;-84
2023/04/23 07:17:20;;;;;;;;;;;;;;;14.59;59.48;101631.94;5050885;28;20497;-83
2023/04/23 07:19:46;;;;;;;;;;;;;;;14.72;59.90;101633.47;5054162;28;20015;-83
2023/04/23 07:22:19;;;;;;;;;;;;;;;14.60;60.64;101636.34;5070123;28;19963;-83
2023/04/23 07:24:52;;;;;;;;;;;;;;;15.01;58.22;101637.56;5051543;28;20039;-85
2023/04/23 07:27:18;;;;;;;;;;;;;;;15.06;57.06;101631.69;5053062;28;20416;-83
2023/04/23 07:29:47;;;;;;;;;;;;;;;15.13;56.49;101632.00;5052455;28;19971;-83
2023/04/23 07:32:22;;;;;;;;;;;;;;;15.09;56.25;101630.97;5054160;28;19969;-84
2023/04/23 07:35:01;;;;;;;;;;;;;;;;;;;;;
2023/04/23 07:37:27;;;;;;;;;;;;;;;15.16;55.61;101640.06;5054295;28;20324;-84
2023/04/23 07:39:52;;;;;;;;;;;;;;;15.29;55.25;101641.56;5066592;28;19926;-85
2023/04/23 07:42:18;;;;;;;;;;;;;;;15.19;55.50;101642.81;5051334;28;20011;-84
2023/04/23 07:44:43;;;;;;;;;;;;;;;15.30;55.10;101631.09;5052952;28;20462;-82
2023/04/23 07:47:09;;;;;;;;;;;;;;;15.30;55.10;101640.72;5069658;28;20381;-83
2023/04/23 07:49:34;;;;;;;;;;;;;;;15.27;54.83;101638.84;5068823;28;20278;-83
2023/04/23 07:52:00;;;;;;;;;;;;;;;15.22;54.86;101636.00;5069698;28;19916;-85
2023/04/23 07:54:25;;;;;;;;;;;;;;;15.20;55.07;101635.00;5055688;28;20003;-83
2023/04/23 07:56:50;;;;;;;;;;;;;;;15.21;55.00;101635.91;5066026;28;20465;-83
2023/04/23 07:59:16;;;;;;;;;;;;;;;15.20;54.94;101636.75;5053691;28;19974;-83
2023/04/23 08:01:41;;;;;;;;;;;;;;;15.17;55.06;101634.84;5068889;28;19924;-82
2023/04/23 08:04:07;;;;;;;;;;;;;;;15.03;56.84;101633.28;5069653;28;19939;-82
2023/04/23 08:06:35;;;;;;;;;;;;;;;14.94;58.47;101630.19;5068893;28;20426;-83
2023/04/23 08:09:05;;;;;;;;;;;;;;;15.03;58.88;101628.91;5068988;28;19920;-82
2023/04/23 08:11:31;;;;;;;;;;;;;;;15.10;59.29;101631.84;5069065;28;19939;-83
2023/04/23 08:13:56;;;;;;;;;;;;;;;15.22;58.25;101637.72;5056553;28;19966;-84
2023/04/23 08:16:22;;;;;;;;;;;;;;;15.35;56.75;101629.59;5068178;28;19963;-82
2023/04/23 08:18:47;;;;;;;;;;;;;;;15.34;56.33;101634.78;5067532;28;19916;-85
2023/04/23 08:21:13;;;;;;;;;;;;;;;15.30;56.01;101633.72;5033770;28;20273;-83
2023/04/23 08:23:38;;;;;;;;;;;;;;;15.30;55.56;101641.63;5067704;28;20279;-84
2023/04/23 08:26:03;;;;;;;;;;;;;;;15.33;55.33;101633.00;5065892;28;19922;-84
2023/04/23 08:28:29;;;;;;;;;;;;;;;15.44;54.89;101631.75;5067517;28;19912;-84
2023/04/23 08:30:55;;;;;;;;;;;;;;;15.39;54.95;101636.81;5067996;28;19916;-84
2023/04/23 08:33:20;;;;;;;;;;;;;;;15.39;54.72;101636.81;5068876;28;20357;-83
2023/04/23 08:35:46;;;;;;;;;;;;;;;15.50;54.33;101629.44;5063626;28;19924;-84
2023/04/23 08:38:11;;;;;;;;;;;;;;;15.39;54.57;101635.91;5070988;28;19938;-83
2023/04/23 08:40:37;;;;;;;;;;;;;;;15.35;54.75;101639.22;5065099;28;20389;-85
2023/04/23 08:43:04;;;;;;;;;;;;;;;15.51;54.34;101635.59;5033387;28;20382;-84
2023/04/23 08:45:30;;;;;;;;;;;;;;;15.62;53.95;101631.72;5050218;28;19922;-84
2023/04/23 08:47:57;;;;;;;;;;;;;;;15.46;54.05;101638.00;5067706;28;20007;-85
2023/04/23 08:50:23;;;;;;;;;;;;;;;15.46;54.16;101640.63;5051303;28;19920;-83
2023/04/23 08:52:52;;;;;;;;;;;;;;;15.50;54.58;101625.91;5064715;28;19916;-88
2023/04/23 08:55:17;;;;;;;;;;;;;;;15.27;56.81;101630.94;5068683;28;19916;-88
2023/04/23 08:57:43;;;;;;;;;;;;;;;15.26;57.95;101630.06;5034281;28;20045;-85
2023/04/23 09:00:09;;;;;;;;;;;;;;;15.21;58.73;101628.91;5063432;28;19916;-88
2023/04/23 09:02:35;;;;;;;;;;;;;;;15.30;58.72;101633.72;5050795;28;20007;-88
2023/04/23 09:05:04;;;;;;;;;;;;;;;15.41;56.98;101629.00;5066621;28;19962;-86
2023/04/23 09:07:30;;;;;;;;;;;;;;;15.45;56.00;101623.03;5045490;28;19952;-87
2023/04/23 09:09:55;;;;;;;;;;;;;;;15.53;55.44;101626.94;5041232;28;19959;-83
2023/04/23 09:12:20;;;;;;;;;;;;;;;15.55;54.91;101625.28;5064625;28;19924;-85
2023/04/23 09:14:46;;;;;;;;;;;;;;;15.57;54.62;101628.88;5048312;28;19924;-83
2023/04/23 09:17:11;;;;;;;;;;;;;;;15.50;54.78;101631.16;5069676;28;19922;-83
2023/04/23 09:19:37;;;;;;;;;;;;;;;15.62;54.28;101631.72;5063005;28;20270;-84
2023/04/23 09:22:03;;;;;;;;;;;;;;;15.60;54.36;101626.41;5051356;28;19920;-83
2023/04/23 09:24:29;;;;;;;;;;;;;;;15.69;54.11;101628.56;5066915;28;20011;-86
2023/04/23 09:26:56;;;;;;;;;;;;;;;15.74;53.81;101628.81;5066908;28;20344;-87
2023/04/23 09:29:22;;;;;;;;;;;;;;;15.71;53.72;101626.03;5066720;28;20519;-84
2023/04/23 09:31:50;;;;;;;;;;;;;;;15.66;53.83;101629.34;5042861;28;19916;-85
2023/04/23 09:34:19;;;;;;;;;;;;;;;15.73;53.53;101627.03;5048964;28;20393;-84
2023/04/23 09:36:45;;;;;;;;;;;;;;;15.66;53.75;101626.69;5066645;28;20345;-83
2023/04/23 09:39:14;;;;;;;;;;;;;;;15.76;53.52;101624.53;5067344;28;19943;-82
2023/04/23 09:41:40;;;;;;;;;;;;;;;15.65;53.71;101621.34;5047015;28;19981;-84
2023/04/23 09:44:07;;;;;;;;;;;;;;;15.57;55.51;101625.34;5049522;28;20064;-83
2023/04/23 09:46:36;;;;;;;;;;;;;;;15.53;57.02;101618.13;5049492;28;20007;-82
2023/04/23 09:49:03;;;;;;;;;;;;;;;15.54;57.74;101620.84;5048660;28;20304;-83
2023/04/23 09:51:29;;;;;;;;;;;;;;;15.55;58.44;101617.38;5048388;28;20019;-83
2023/04/23 09:53:55;;;;;;;;;;;;;;;15.63;57.40;101617.75;5065339;28;19916;-82
2023/04/23 09:56:20;;;;;;;;;;;;;;;15.56;56.35;101618.31;5065374;28;20013;-83
2023/04/23 09:58:46;;;;;;;;;;;;;;;15.71;55.38;101616.38;5065162;28;19920;-83
2023/04/23 10:01:14;;;;;;;;;;;;;;;15.79;54.92;101615.03;5066308;28;19963;-82
2023/04/23 10:03:42;;;;;;;;;;;;;;;15.75;54.61;101620.09;5067953;28;20024;-83
2023/04/23 10:06:12;;;;;;;;;;;;;;;15.79;54.31;101607.13;5067527;28;20275;-83
2023/04/23 10:08:38;;;;;;;;;;;;;;;15.76;54.43;101621.88;5050540;28;20562;-82
2023/04/23 10:11:04;;;;;;;;;;;;;;;15.85;54.06;101615.31;5064173;28;19931;-83
2023/04/23 10:13:29;;;;;;;;;;;;;;;15.86;54.07;101609.22;5065978;28;19916;-83
2023/04/23 10:15:55;;;;;;;;;;;;;;;15.78;54.07;101610.59;5052907;28;19920;-83
2023/04/23 10:18:21;;;;;;;;;;;;;;;15.85;53.89;101614.41;5069158;28;20441;-84
2023/04/23 10:20:47;;;;;;;;;;;;;;;15.83;54.07;101605.53;5063009;28;20068;-83
2023/04/23 10:23:12;;;;;;;;;;;;;;;15.85;53.65;101611.75;5068943;28;19971;-83
2023/04/23 10:25:38;;;;;;;;;;;;;;;15.89;53.63;101611.06;5050067;28;20021;-83
2023/04/23 10:28:03;;;;;;;;;;;;;;;15.85;53.74;101611.75;5070986;28;19916;-84
2023/04/23 10:30:29;;;;;;;;;;;;;;;15.92;53.58;101603.34;5068097;28;20393;-83
2023/04/23 10:32:54;;;;;;;;;;;;;;;15.92;54.14;101599.78;5053567;28;20381;-83
2023/04/23 10:35:20;;;;;;;;;;;;;;;15.80;55.99;101595.75;5050389;28;19919;-83
2023/04/23 10:37:46;;;;;;;;;;;;;;;15.81;57.10;101584.41;5056005;28;19924;-83
2023/04/23 10:40:13;;;;;;;;;;;;;;;15.77;57.90;101590.38;5064050;28;19973;-83
2023/04/23 10:42:39;;;;;;;;;;;;;;;15.66;58.38;101595.09;5046117;28;19917;-83
2023/04/23 10:45:12;;;;;;;;;;;;;;;15.71;56.82;101589.16;5046268;28;19967;-82
2023/04/23 10:47:37;;;;;;;;;;;;;;;15.77;55.92;101587.72;5068445;28;20293;-83
2023/04/23 10:50:26;;;;;;;;;;;;;;;15.74;55.58;101582.31;5064931;28;20417;-83
2023/04/23 10:52:53;;;;;;;;;;;;;;;15.80;54.95;101585.22;5068128;28;20297;-83
2023/04/23 10:55:19;;;;;;;;;;;;;;;15.85;54.71;101580.16;5061140;28;19912;-83
2023/04/23 10:57:57;;;;;;;;;;;;;;;15.93;54.42;101580.53;5077486;28;20330;-83
2023/04/23 11:00:23;;;;;;;;;;;;;;;16.07;54.00;101579.41;5073286;28;19923;-83
2023/04/23 11:02:49;;;;;;;;;;;;;;;16.02;53.79;101576.56;5071220;28;19916;-83
2023/04/23 11:05:16;;;;;;;;;;;;;;;16.01;53.79;101579.13;5035055;28;20318;-82
2023/04/23 11:07:41;;;;;;;;;;;;;;;16.06;53.62;101574.97;5064223;28;19924;-82
2023/04/23 11:10:13;;;;;;;;;;;;;;;16.02;53.82;101578.28;5055344;28;19913;-83
2023/04/23 11:12:38;;;;;;;;;;;;;;;16.04;53.74;101579.25;5062813;28;19916;-82
2023/04/23 11:15:13;;;;;;;;;;;;;;;16.02;53.79;101570.38;5071915;28;19919;-82
2023/04/23 11:17:42;;;;;;;;;;;;;;;16.04;53.57;101576.63;5073032;28;20415;-83
2023/04/23 11:20:12;;;;;;;;;;;;;;;16.09;53.57;101572.47;5073641;28;20393;-84
2023/04/23 11:22:43;;;;;;;;;;;;;;;16.15;53.92;101582.38;5070078;28;19922;-83
2023/04/23 11:25:13;;;;;;;;;;;;;;;15.92;56.35;101576.06;5070696;28;19916;-84
2023/04/23 11:27:40;;;;;;;;;;;;;;;15.84;57.68;101571.38;5069752;28;20015;-82
2023/04/23 11:30:11;;;;;;;;;;;;;;;15.90;58.11;101572.50;5071140;28;19977;-84
2023/04/23 11:32:36;;;;;;;;;;;;;;;15.85;58.40;101565.28;5071449;28;19973;-84
2023/04/23 11:35:04;;;;;;;;;;;;;;;15.95;56.75;101570.94;5071894;28;20413;-83
2023/04/23 11:37:29;;;;;;;;;;;;;;;15.99;55.88;101567.63;5069517;28;19912;-83
2023/04/23 11:39:55;;;;;;;;;;;;;;;16.06;55.22;101577.59;5066406;28;20316;-84
2023/04/23 11:42:20;;;;;;;;;;;;;;;16.16;54.45;101574.53;5071786;28;19912;-84
2023/04/23 11:44:46;;;;;;;;;;;;;;;16.28;54.06;101576.81;5071784;28;20310;-83
2023/04/23 11:47:13;;;;;;;;;;;;;;;16.26;53.72;101568.84;5059256;28;20355;-84
2023/04/23 11:49:39;;;;;;;;;;;;;;;16.33;53.63;101567.38;5053351;28;20345;-84
2023/04/23 11:52:05;;;;;;;;;;;;;;;16.25;53.88;101569.66;5053724;28;19913;-83
2023/04/23 11:54:31;;;;;;;;;;;;;;;16.35;53.31;101567.44;5071734;28;20400;-83
2023/04/23 11:57:00;;;;;;;;;;;;;;;16.36;53.47;101563.97;5064956;28;20380;-84
2023/04/23 11:59:26;;;;;;;;;;;;;;;16.35;53.25;101564.81;5045031;28;20377;-82
2023/04/23 12:01:55;;;;;;;;;;;;;;;16.34;53.27;101563.91;5068416;28;19920;-84
2023/04/23 12:04:30;;;;;;;;;;;;;;;16.37;53.25;101560.50;5055439;28;20372;-83
2023/04/23 12:06:56;;;;;;;;;;;;;;;16.42;53.10;101559.84;5052231;28;20371;-82
2023/04/23 12:09:22;;;;;;;;;;;;;;;16.44;53.04;101552.00;5076852;28;20340;-83
2023/04/23 12:11:51;;;;;;;;;;;;;;;16.42;53.19;101551.03;5074481;28;19920;-83
2023/04/23 12:14:17;;;;;;;;;;;;;;;16.20;55.17;101549.22;5070271;28;19920;-82
2023/04/23 12:16:44;;;;;;;;;;;;;;;16.32;56.17;101546.22;5048341;28;19921;-83
2023/04/23 12:19:17;;;;;;;;;;;;;;;16.27;56.93;101546.00;5068117;28;20382;-81
2023/04/23 12:22:02;;;;;;;;;;;;;;;16.20;57.92;101549.22;5049673;28;20386;-83
2023/04/23 12:24:28;;;;;;;;;;;;;;;16.23;56.30;101545.00;5070066;28;19927;-84
2023/04/23 12:26:54;;;;;;;;;;;;;;;16.27;55.26;101548.66;5052087;28;19924;-83
2023/04/23 12:29:23;;;;;;;;;;;;;;;16.25;54.70;101534.50;5051907;28;19916;-83
2023/04/23 12:31:50;;;;;;;;;;;;;;;16.21;54.60;101538.75;5070438;28;19916;-84
2023/04/23 12:34:16;;;;;;;;;;;;;;;16.28;54.27;101537.28;5045174;28;19920;-83
2023/04/23 12:36:51;;;;;;;;;;;;;;;16.31;54.08;101531.25;5052096;28;19916;-84
2023/04/23 12:39:23;;;;;;;;;;;;;;;16.43;53.75;101542.31;5052972;28;20007;-83
2023/04/23 12:41:56;;;;;;;;;;;;;;;16.41;53.46;101534.34;5079499;28;19923;-84